sensor_id;sensor_type;location;lat;lon;timestamp;pressure;altitude;pressure_sealevel;temperature
73265;BMP280;61493;51.008;14.088;2022-07-04T00:02:41;97902.50;;;21.43
73265;BMP280;61493;51.008;14.088;2022-07-04T00:05:07;97904.25;;;21.35
73265;BMP280;61493;51.008;14.088;2022-07-04T00:07:38;97914.81;;;21.27
73265;BMP280;61493;51.008;14.088;2022-07-04T00:10:05;97903.75;;;21.31
73265;BMP280;61493;51.008;14.088;2022-07-04T00:12:31;97902.78;;;21.40
73265;BMP280;61493;51.008;14.088;2022-07-04T00:14:57;97908.41;;;21.30
73265;BMP280;61493;51.008;14.088;2022-07-04T00:17:22;97908.91;;;21.29
73265;BMP280;61493;51.008;14.088;2022-07-04T00:19:47;97901.53;;;21.29
73265;BMP280;61493;51.008;14.088;2022-07-04T00:22:13;97902.00;;;21.28
73265;BMP280;61493;51.008;14.088;2022-07-04T00:24:38;97897.34;;;21.28
73265;BMP280;61493;51.008;14.088;2022-07-04T00:27:04;97894.16;;;21.08
73265;BMP280;61493;51.008;14.088;2022-07-04T00:29:29;97905.47;;;21.00
73265;BMP280;61493;51.008;14.088;2022-07-04T00:31:55;97898.31;;;21.03
73265;BMP280;61493;51.008;14.088;2022-07-04T00:34:20;97901.50;;;20.96
73265;BMP280;61493;51.008;14.088;2022-07-04T00:36:45;97902.50;;;20.93
73265;BMP280;61493;51.008;14.088;2022-07-04T00:39:11;97904.22;;;20.90
73265;BMP280;61493;51.008;14.088;2022-07-04T00:41:36;97905.47;;;20.89
73265;BMP280;61493;51.008;14.088;2022-07-04T00:44:06;97904.44;;;20.76
73265;BMP280;61493;51.008;14.088;2022-07-04T00:46:32;97905.91;;;20.65
73265;BMP280;61493;51.008;14.088;2022-07-04T00:48:58;97904.38;;;20.53
73265;BMP280;61493;51.008;14.088;2022-07-04T00:51:23;97906.84;;;20.51
73265;BMP280;61493;51.008;14.088;2022-07-04T00:53:50;97921.94;;;20.15
73265;BMP280;61493;51.008;14.088;2022-07-04T00:56:16;97924.22;;;19.80
73265;BMP280;61493;51.008;14.088;2022-07-04T00:58:41;97918.69;;;19.63
73265;BMP280;61493;51.008;14.088;2022-07-04T01:01:07;97926.59;;;19.35
73265;BMP280;61493;51.008;14.088;2022-07-04T01:03:32;97925.66;;;19.44
73265;BMP280;61493;51.008;14.088;2022-07-04T01:05:59;97923.19;;;19.40
73265;BMP280;61493;51.008;14.088;2022-07-04T01:08:25;97925.59;;;19.38
73265;BMP280;61493;51.008;14.088;2022-07-04T01:10:51;97936.19;;;19.16
73265;BMP280;61493;51.008;14.088;2022-07-04T01:13:23;97940.00;;;19.04
73265;BMP280;61493;51.008;14.088;2022-07-04T01:18:41;97936.34;;;18.81
73265;BMP280;61493;51.008;14.088;2022-07-04T01:21:22;97948.03;;;18.98
73265;BMP280;61493;51.008;14.088;2022-07-04T01:23:50;97942.47;;;18.81
73265;BMP280;61493;51.008;14.088;2022-07-04T01:29:09;97937.44;;;18.28
73265;BMP280;61493;51.008;14.088;2022-07-04T01:31:34;97941.81;;;18.26
73265;BMP280;61493;51.008;14.088;2022-07-04T01:34:00;97942.75;;;18.22
73265;BMP280;61493;51.008;14.088;2022-07-04T01:36:25;97943.38;;;18.32
73265;BMP280;61493;51.008;14.088;2022-07-04T01:38:50;97949.19;;;18.31
73265;BMP280;61493;51.008;14.088;2022-07-04T01:41:16;97945.03;;;18.30
73265;BMP280;61493;51.008;14.088;2022-07-04T01:43:41;97959.97;;;18.31
73265;BMP280;61493;51.008;14.088;2022-07-04T01:46:06;97954.84;;;18.12
73265;BMP280;61493;51.008;14.088;2022-07-04T01:48:32;97955.91;;;18.00
73265;BMP280;61493;51.008;14.088;2022-07-04T01:50:57;97957.44;;;17.86
73265;BMP280;61493;51.008;14.088;2022-07-04T01:53:22;97960.13;;;17.72
73265;BMP280;61493;51.008;14.088;2022-07-04T01:55:47;97966.91;;;17.82
73265;BMP280;61493;51.008;14.088;2022-07-04T01:58:13;97962.97;;;17.68
73265;BMP280;61493;51.008;14.088;2022-07-04T02:00:38;97968.75;;;17.61
73265;BMP280;61493;51.008;14.088;2022-07-04T02:03:22;97974.50;;;17.54
73265;BMP280;61493;51.008;14.088;2022-07-04T02:05:47;97973.56;;;17.42
73265;BMP280;61493;51.008;14.088;2022-07-04T02:08:12;97984.03;;;17.26
73265;BMP280;61493;51.008;14.088;2022-07-04T02:10:38;97988.09;;;17.21
73265;BMP280;61493;51.008;14.088;2022-07-04T02:13:03;97984.75;;;17.11
73265;BMP280;61493;51.008;14.088;2022-07-04T02:15:38;97996.13;;;17.06
73265;BMP280;61493;51.008;14.088;2022-07-04T02:18:05;97996.13;;;17.06
73265;BMP280;61493;51.008;14.088;2022-07-04T02:20:31;98000.69;;;17.15
73265;BMP280;61493;51.008;14.088;2022-07-04T02:22:56;97998.75;;;17.15
73265;BMP280;61493;51.008;14.088;2022-07-04T02:25:22;97997.94;;;17.24
73265;BMP280;61493;51.008;14.088;2022-07-04T02:27:47;98005.75;;;17.37
73265;BMP280;61493;51.008;14.088;2022-07-04T02:30:13;98005.91;;;17.33
73265;BMP280;61493;51.008;14.088;2022-07-04T02:32:39;98013.88;;;17.28
73265;BMP280;61493;51.008;14.088;2022-07-04T02:35:05;98021.03;;;17.31
73265;BMP280;61493;51.008;14.088;2022-07-04T02:37:31;98025.44;;;17.19
73265;BMP280;61493;51.008;14.088;2022-07-04T02:39:56;98027.81;;;17.02
73265;BMP280;61493;51.008;14.088;2022-07-04T02:42:21;98028.47;;;16.97
73265;BMP280;61493;51.008;14.088;2022-07-04T02:44:47;98027.44;;;17.09
73265;BMP280;61493;51.008;14.088;2022-07-04T02:47:12;98025.84;;;17.27
73265;BMP280;61493;51.008;14.088;2022-07-04T02:49:38;98027.72;;;17.35
73265;BMP280;61493;51.008;14.088;2022-07-04T02:52:03;98024.53;;;17.22
73265;BMP280;61493;51.008;14.088;2022-07-04T02:54:29;98028.94;;;17.10
73265;BMP280;61493;51.008;14.088;2022-07-04T02:56:54;98029.38;;;17.18
73265;BMP280;61493;51.008;14.088;2022-07-04T02:59:19;98031.31;;;17.17
73265;BMP280;61493;51.008;14.088;2022-07-04T03:01:45;98039.84;;;17.31
73265;BMP280;61493;51.008;14.088;2022-07-04T03:04:10;98043.25;;;17.16
73265;BMP280;61493;51.008;14.088;2022-07-04T03:06:35;98039.53;;;17.14
73265;BMP280;61493;51.008;14.088;2022-07-04T03:09:01;98040.78;;;17.04
73265;BMP280;61493;51.008;14.088;2022-07-04T03:11:26;98048.94;;;16.95
73265;BMP280;61493;51.008;14.088;2022-07-04T03:13:51;98047.91;;;16.92
73265;BMP280;61493;51.008;14.088;2022-07-04T03:16:17;98052.03;;;16.93
73265;BMP280;61493;51.008;14.088;2022-07-04T03:18:42;98051.19;;;17.11
73265;BMP280;61493;51.008;14.088;2022-07-04T03:21:07;98054.53;;;17.06
73265;BMP280;61493;51.008;14.088;2022-07-04T03:23:33;98062.28;;;17.04
73265;BMP280;61493;51.008;14.088;2022-07-04T03:25:59;98068.94;;;17.17
73265;BMP280;61493;51.008;14.088;2022-07-04T03:28:25;98069.31;;;17.25
73265;BMP280;61493;51.008;14.088;2022-07-04T03:30:50;98075.56;;;17.31
73265;BMP280;61493;51.008;14.088;2022-07-04T03:33:15;98078.41;;;17.28
73265;BMP280;61493;51.008;14.088;2022-07-04T03:35:41;98085.28;;;17.29
73265;BMP280;61493;51.008;14.088;2022-07-04T03:38:06;98069.72;;;17.33
73265;BMP280;61493;51.008;14.088;2022-07-04T03:40:31;98085.22;;;17.38
73265;BMP280;61493;51.008;14.088;2022-07-04T03:42:58;98082.03;;;17.39
73265;BMP280;61493;51.008;14.088;2022-07-04T03:45:23;98084.66;;;17.48
73265;BMP280;61493;51.008;14.088;2022-07-04T03:47:49;98081.34;;;17.53
73265;BMP280;61493;51.008;14.088;2022-07-04T03:50:14;98095.38;;;17.58
73265;BMP280;61493;51.008;14.088;2022-07-04T03:52:40;98089.44;;;17.68
73265;BMP280;61493;51.008;14.088;2022-07-04T03:55:05;98096.78;;;17.82
73265;BMP280;61493;51.008;14.088;2022-07-04T03:57:31;98089.56;;;17.88
73265;BMP280;61493;51.008;14.088;2022-07-04T03:59:56;98092.34;;;18.09
73265;BMP280;61493;51.008;14.088;2022-07-04T04:02:21;98093.63;;;18.13
73265;BMP280;61493;51.008;14.088;2022-07-04T04:04:47;98090.66;;;18.26
73265;BMP280;61493;51.008;14.088;2022-07-04T04:07:31;98096.22;;;18.37
73265;BMP280;61493;51.008;14.088;2022-07-04T04:09:56;98092.59;;;18.40
73265;BMP280;61493;51.008;14.088;2022-07-04T04:12:21;98091.69;;;18.43
73265;BMP280;61493;51.008;14.088;2022-07-04T04:14:47;98098.63;;;18.50
73265;BMP280;61493;51.008;14.088;2022-07-04T04:17:12;98112.56;;;18.48
73265;BMP280;61493;51.008;14.088;2022-07-04T04:19:37;98112.47;;;18.43
73265;BMP280;61493;51.008;14.088;2022-07-04T04:22:03;98115.44;;;18.45
73265;BMP280;61493;51.008;14.088;2022-07-04T04:24:28;98110.63;;;18.49
73265;BMP280;61493;51.008;14.088;2022-07-04T04:26:53;98106.88;;;18.46
73265;BMP280;61493;51.008;14.088;2022-07-04T04:29:18;98106.88;;;18.46
73265;BMP280;61493;51.008;14.088;2022-07-04T04:31:44;98109.78;;;18.43
73265;BMP280;61493;51.008;14.088;2022-07-04T04:34:09;98103.06;;;18.53
73265;BMP280;61493;51.008;14.088;2022-07-04T04:36:34;98104.38;;;18.57
73265;BMP280;61493;51.008;14.088;2022-07-04T04:39:00;98109.13;;;18.83
73265;BMP280;61493;51.008;14.088;2022-07-04T04:41:25;98113.31;;;19.04
73265;BMP280;61493;51.008;14.088;2022-07-04T04:43:50;98110.34;;;19.69
73265;BMP280;61493;51.008;14.088;2022-07-04T04:46:16;98116.09;;;20.08
73265;BMP280;61493;51.008;14.088;2022-07-04T04:48:41;98119.56;;;20.82
73265;BMP280;61493;51.008;14.088;2022-07-04T04:51:07;98115.03;;;21.33
73265;BMP280;61493;51.008;14.088;2022-07-04T04:53:32;98121.53;;;21.97
73265;BMP280;61493;51.008;14.088;2022-07-04T04:55:57;98123.97;;;21.89
73265;BMP280;61493;51.008;14.088;2022-07-04T04:58:23;98124.69;;;22.45
73265;BMP280;61493;51.008;14.088;2022-07-04T05:00:49;98120.84;;;22.88
73265;BMP280;61493;51.008;14.088;2022-07-04T05:03:18;98137.44;;;22.67
73265;BMP280;61493;51.008;14.088;2022-07-04T05:05:44;98133.72;;;22.70
73265;BMP280;61493;51.008;14.088;2022-07-04T05:08:10;98142.16;;;23.19
73265;BMP280;61493;51.008;14.088;2022-07-04T05:10:38;98139.09;;;24.05
73265;BMP280;61493;51.008;14.088;2022-07-04T05:13:03;98143.13;;;23.92
73265;BMP280;61493;51.008;14.088;2022-07-04T05:15:29;98151.84;;;24.15
73265;BMP280;61493;51.008;14.088;2022-07-04T05:17:54;98157.22;;;24.21
73265;BMP280;61493;51.008;14.088;2022-07-04T05:20:19;98156.47;;;24.69
73265;BMP280;61493;51.008;14.088;2022-07-04T05:22:45;98168.81;;;24.70
73265;BMP280;61493;51.008;14.088;2022-07-04T05:25:10;98168.94;;;25.02
73265;BMP280;61493;51.008;14.088;2022-07-04T05:27:35;98172.75;;;25.12
73265;BMP280;61493;51.008;14.088;2022-07-04T05:30:03;98176.63;;;24.98
73265;BMP280;61493;51.008;14.088;2022-07-04T05:32:28;98179.53;;;25.05
73265;BMP280;61493;51.008;14.088;2022-07-04T05:34:53;98177.09;;;25.39
73265;BMP280;61493;51.008;14.088;2022-07-04T05:37:19;98176.75;;;25.94
73265;BMP280;61493;51.008;14.088;2022-07-04T05:39:46;98182.16;;;26.26
73265;BMP280;61493;51.008;14.088;2022-07-04T05:42:11;98185.25;;;26.16
73265;BMP280;61493;51.008;14.088;2022-07-04T05:44:36;98182.00;;;25.92
73265;BMP280;61493;51.008;14.088;2022-07-04T05:47:02;98195.78;;;26.26
73265;BMP280;61493;51.008;14.088;2022-07-04T05:49:27;98194.00;;;26.54
73265;BMP280;61493;51.008;14.088;2022-07-04T05:51:53;98197.91;;;27.40
73265;BMP280;61493;51.008;14.088;2022-07-04T05:54:18;98193.06;;;27.67
73265;BMP280;61493;51.008;14.088;2022-07-04T05:56:43;98199.69;;;28.00
73265;BMP280;61493;51.008;14.088;2022-07-04T05:59:09;98208.47;;;27.23
73265;BMP280;61493;51.008;14.088;2022-07-04T06:01:36;98212.09;;;27.38
73265;BMP280;61493;51.008;14.088;2022-07-04T06:04:02;98212.22;;;26.99
73265;BMP280;61493;51.008;14.088;2022-07-04T06:06:28;98203.06;;;27.64
73265;BMP280;61493;51.008;14.088;2022-07-04T06:08:53;98194.91;;;27.30
73265;BMP280;61493;51.008;14.088;2022-07-04T06:11:18;98194.59;;;28.68
73265;BMP280;61493;51.008;14.088;2022-07-04T06:13:44;98184.72;;;29.16
73265;BMP280;61493;51.008;14.088;2022-07-04T06:16:09;98190.03;;;28.63
73265;BMP280;61493;51.008;14.088;2022-07-04T06:18:34;98192.03;;;28.63
73265;BMP280;61493;51.008;14.088;2022-07-04T06:20:59;98194.53;;;28.53
73265;BMP280;61493;51.008;14.088;2022-07-04T06:23:25;98191.44;;;29.00
73265;BMP280;61493;51.008;14.088;2022-07-04T06:25:50;98197.19;;;29.48
73265;BMP280;61493;51.008;14.088;2022-07-04T06:28:15;98207.06;;;28.77
73265;BMP280;61493;51.008;14.088;2022-07-04T06:30:42;98219.91;;;28.53
73265;BMP280;61493;51.008;14.088;2022-07-04T06:33:08;98217.41;;;29.22
73265;BMP280;61493;51.008;14.088;2022-07-04T06:35:33;98220.94;;;29.83
73265;BMP280;61493;51.008;14.088;2022-07-04T06:38:12;98220.72;;;29.43
73265;BMP280;61493;51.008;14.088;2022-07-04T06:40:38;98222.44;;;30.94
73265;BMP280;61493;51.008;14.088;2022-07-04T06:43:04;98216.81;;;30.85
73265;BMP280;61493;51.008;14.088;2022-07-04T06:45:30;98223.50;;;29.81
73265;BMP280;61493;51.008;14.088;2022-07-04T06:47:56;98213.06;;;29.34
73265;BMP280;61493;51.008;14.088;2022-07-04T06:50:21;98205.56;;;30.10
73265;BMP280;61493;51.008;14.088;2022-07-04T06:52:47;98207.78;;;29.59
73265;BMP280;61493;51.008;14.088;2022-07-04T06:55:12;98204.25;;;31.56
73265;BMP280;61493;51.008;14.088;2022-07-04T06:57:38;98208.81;;;30.72
73265;BMP280;61493;51.008;14.088;2022-07-04T07:00:05;98206.56;;;31.18
73265;BMP280;61493;51.008;14.088;2022-07-04T07:02:30;98211.38;;;31.10
73265;BMP280;61493;51.008;14.088;2022-07-04T07:04:56;98202.56;;;31.61
73265;BMP280;61493;51.008;14.088;2022-07-04T07:07:22;98189.84;;;33.14
73265;BMP280;61493;51.008;14.088;2022-07-04T07:09:47;98193.06;;;31.96
73265;BMP280;61493;51.008;14.088;2022-07-04T07:12:12;98204.66;;;32.83
73265;BMP280;61493;51.008;14.088;2022-07-04T07:14:38;98203.09;;;32.89
73265;BMP280;61493;51.008;14.088;2022-07-04T07:17:03;98204.91;;;31.81
73265;BMP280;61493;51.008;14.088;2022-07-04T07:19:28;98200.19;;;32.87
73265;BMP280;61493;51.008;14.088;2022-07-04T07:21:53;98198.69;;;33.59
73265;BMP280;61493;51.008;14.088;2022-07-04T07:24:19;98196.63;;;33.04
73265;BMP280;61493;51.008;14.088;2022-07-04T07:26:44;98200.72;;;34.26
73265;BMP280;61493;51.008;14.088;2022-07-04T07:29:09;98206.16;;;35.26
73265;BMP280;61493;51.008;14.088;2022-07-04T07:31:34;98200.34;;;32.89
73265;BMP280;61493;51.008;14.088;2022-07-04T07:34:00;98196.84;;;32.89
73265;BMP280;61493;51.008;14.088;2022-07-04T07:36:25;98205.78;;;33.52
73265;BMP280;61493;51.008;14.088;2022-07-04T07:38:50;98194.91;;;34.12
73265;BMP280;61493;51.008;14.088;2022-07-04T07:41:17;98183.00;;;35.52
73265;BMP280;61493;51.008;14.088;2022-07-04T07:43:43;98195.88;;;34.95
73265;BMP280;61493;51.008;14.088;2022-07-04T07:46:08;98208.47;;;35.29
73265;BMP280;61493;51.008;14.088;2022-07-04T07:48:34;98193.25;;;35.82
73265;BMP280;61493;51.008;14.088;2022-07-04T07:50:59;98194.66;;;36.05
73265;BMP280;61493;51.008;14.088;2022-07-04T07:53:25;98197.34;;;35.18
73265;BMP280;61493;51.008;14.088;2022-07-04T07:55:50;98199.44;;;35.29
73265;BMP280;61493;51.008;14.088;2022-07-04T07:58:15;98193.47;;;34.71
73265;BMP280;61493;51.008;14.088;2022-07-04T08:00:41;98204.66;;;35.56
73265;BMP280;61493;51.008;14.088;2022-07-04T08:03:06;98193.81;;;35.48
73265;BMP280;61493;51.008;14.088;2022-07-04T08:05:50;98202.13;;;35.69
73265;BMP280;61493;51.008;14.088;2022-07-04T08:08:15;98198.19;;;35.84
73265;BMP280;61493;51.008;14.088;2022-07-04T08:10:41;98196.56;;;36.81
73265;BMP280;61493;51.008;14.088;2022-07-04T08:13:06;98202.72;;;36.80
73265;BMP280;61493;51.008;14.088;2022-07-04T08:15:32;98208.53;;;36.16
73265;BMP280;61493;51.008;14.088;2022-07-04T08:17:58;98207.00;;;34.67
73265;BMP280;61493;51.008;14.088;2022-07-04T08:20:23;98202.31;;;36.27
73265;BMP280;61493;51.008;14.088;2022-07-04T08:22:48;98202.69;;;37.89
73265;BMP280;61493;51.008;14.088;2022-07-04T08:25:14;98205.28;;;37.73
73265;BMP280;61493;51.008;14.088;2022-07-04T08:27:40;98195.38;;;38.48
73265;BMP280;61493;51.008;14.088;2022-07-04T08:30:06;98196.16;;;35.96
73265;BMP280;61493;51.008;14.088;2022-07-04T08:32:31;98192.94;;;35.45
73265;BMP280;61493;51.008;14.088;2022-07-04T08:34:56;98180.72;;;36.14
73265;BMP280;61493;51.008;14.088;2022-07-04T08:37:22;98187.75;;;37.08
73265;BMP280;61493;51.008;14.088;2022-07-04T08:39:48;98184.63;;;37.39
73265;BMP280;61493;51.008;14.088;2022-07-04T08:42:17;98184.81;;;38.44
73265;BMP280;61493;51.008;14.088;2022-07-04T08:44:47;98182.63;;;37.65
73265;BMP280;61493;51.008;14.088;2022-07-04T08:47:17;98175.16;;;37.56
73265;BMP280;61493;51.008;14.088;2022-07-04T08:49:53;98186.78;;;38.69
73265;BMP280;61493;51.008;14.088;2022-07-04T08:52:30;98184.03;;;38.16
73265;BMP280;61493;51.008;14.088;2022-07-04T08:54:56;98180.66;;;38.18
73265;BMP280;61493;51.008;14.088;2022-07-04T08:57:40;98185.84;;;39.35
73265;BMP280;61493;51.008;14.088;2022-07-04T09:00:25;98184.44;;;39.34
73265;BMP280;61493;51.008;14.088;2022-07-04T09:02:51;98186.78;;;38.69
73265;BMP280;61493;51.008;14.088;2022-07-04T09:05:17;98186.97;;;37.93
73265;BMP280;61493;51.008;14.088;2022-07-04T09:07:42;98188.63;;;38.78
73265;BMP280;61493;51.008;14.088;2022-07-04T09:10:08;98188.06;;;37.63
73265;BMP280;61493;51.008;14.088;2022-07-04T09:12:33;98188.09;;;38.81
73265;BMP280;61493;51.008;14.088;2022-07-04T09:14:58;98194.03;;;39.03
73265;BMP280;61493;51.008;14.088;2022-07-04T09:17:26;98195.19;;;38.98
73265;BMP280;61493;51.008;14.088;2022-07-04T09:20:15;98196.41;;;39.22
73265;BMP280;61493;51.008;14.088;2022-07-04T09:22:41;98189.56;;;38.03
73265;BMP280;61493;51.008;14.088;2022-07-04T09:25:06;98193.06;;;38.03
73265;BMP280;61493;51.008;14.088;2022-07-04T09:27:36;98189.63;;;38.44
73265;BMP280;61493;51.008;14.088;2022-07-04T09:30:03;98203.41;;;37.64
73265;BMP280;61493;51.008;14.088;2022-07-04T09:32:42;98207.19;;;37.82
73265;BMP280;61493;51.008;14.088;2022-07-04T09:35:14;98194.97;;;38.26
73265;BMP280;61493;51.008;14.088;2022-07-04T09:37:46;98206.94;;;37.78
73265;BMP280;61493;51.008;14.088;2022-07-04T09:40:31;98213.88;;;36.47
73265;BMP280;61493;51.008;14.088;2022-07-04T09:42:58;98199.78;;;37.61
73265;BMP280;61493;51.008;14.088;2022-07-04T09:45:24;98193.72;;;38.15
73265;BMP280;61493;51.008;14.088;2022-07-04T09:47:53;98200.47;;;38.65
73265;BMP280;61493;51.008;14.088;2022-07-04T09:50:20;98192.22;;;39.51
73265;BMP280;61493;51.008;14.088;2022-07-04T09:52:54;98187.06;;;38.48
73265;BMP280;61493;51.008;14.088;2022-07-04T09:55:28;98199.59;;;38.35
73265;BMP280;61493;51.008;14.088;2022-07-04T09:58:05;98194.50;;;39.41
73265;BMP280;61493;51.008;14.088;2022-07-04T10:00:38;98196.44;;;38.95
73265;BMP280;61493;51.008;14.088;2022-07-04T10:03:24;98191.78;;;39.43
73265;BMP280;61493;51.008;14.088;2022-07-04T10:08:29;98191.66;;;41.13
73265;BMP280;61493;51.008;14.088;2022-07-04T10:10:58;98190.88;;;39.97
73265;BMP280;61493;51.008;14.088;2022-07-04T10:13:24;98176.66;;;37.08
73265;BMP280;61493;51.008;14.088;2022-07-04T10:15:50;98184.38;;;36.28
73265;BMP280;61493;51.008;14.088;2022-07-04T10:18:18;98186.19;;;36.82
73265;BMP280;61493;51.008;14.088;2022-07-04T10:20:44;98195.50;;;37.72
73265;BMP280;61493;51.008;14.088;2022-07-04T10:23:11;98188.25;;;40.16
73265;BMP280;61493;51.008;14.088;2022-07-04T10:25:36;98190.59;;;39.32
73265;BMP280;61493;51.008;14.088;2022-07-04T10:28:02;98184.44;;;39.20
73265;BMP280;61493;51.008;14.088;2022-07-04T10:30:32;98179.66;;;36.19
73265;BMP280;61493;51.008;14.088;2022-07-04T10:33:00;98176.56;;;35.59
73265;BMP280;61493;51.008;14.088;2022-07-04T10:35:47;98172.09;;;37.01
73265;BMP280;61493;51.008;14.088;2022-07-04T10:38:13;98176.19;;;36.77
73265;BMP280;61493;51.008;14.088;2022-07-04T10:48:28;98159.56;;;36.30
73265;BMP280;61493;51.008;14.088;2022-07-04T10:51:01;98153.97;;;37.12
73265;BMP280;61493;51.008;14.088;2022-07-04T10:53:27;98158.06;;;36.06
73265;BMP280;61493;51.008;14.088;2022-07-04T10:55:53;98156.34;;;38.05
73265;BMP280;61493;51.008;14.088;2022-07-04T10:58:41;98155.19;;;37.46
73265;BMP280;61493;51.008;14.088;2022-07-04T11:01:14;98148.47;;;37.88
73265;BMP280;61493;51.008;14.088;2022-07-04T11:03:51;98157.97;;;35.50
73265;BMP280;61493;51.008;14.088;2022-07-04T11:09:19;98150.16;;;37.42
73265;BMP280;61493;51.008;14.088;2022-07-04T11:11:59;98152.41;;;37.96
73265;BMP280;61493;51.008;14.088;2022-07-04T11:14:38;98160.81;;;39.64
73265;BMP280;61493;51.008;14.088;2022-07-04T11:17:05;98152.28;;;39.75
73265;BMP280;61493;51.008;14.088;2022-07-04T11:19:31;98148.22;;;40.74
73265;BMP280;61493;51.008;14.088;2022-07-04T11:21:57;98148.28;;;39.34
73265;BMP280;61493;51.008;14.088;2022-07-04T11:24:24;98139.34;;;39.51
73265;BMP280;61493;51.008;14.088;2022-07-04T11:26:49;98148.41;;;40.45
73265;BMP280;61493;51.008;14.088;2022-07-04T11:29:15;98150.19;;;40.54
73265;BMP280;61493;51.008;14.088;2022-07-04T11:31:45;98147.56;;;37.58
73265;BMP280;61493;51.008;14.088;2022-07-04T11:34:12;98132.41;;;38.25
73265;BMP280;61493;51.008;14.088;2022-07-04T11:36:40;98146.69;;;36.70
73265;BMP280;61493;51.008;14.088;2022-07-04T11:39:10;98143.88;;;37.67
73265;BMP280;61493;51.008;14.088;2022-07-04T11:41:40;98136.81;;;38.30
73265;BMP280;61493;51.008;14.088;2022-07-04T11:44:26;98132.31;;;38.64
73265;BMP280;61493;51.008;14.088;2022-07-04T11:49:49;98137.47;;;37.02
73265;BMP280;61493;51.008;14.088;2022-07-04T11:52:17;98134.00;;;37.89
73265;BMP280;61493;51.008;14.088;2022-07-04T11:54:43;98137.28;;;38.65
73265;BMP280;61493;51.008;14.088;2022-07-04T11:57:22;98126.78;;;39.36
73265;BMP280;61493;51.008;14.088;2022-07-04T12:08:59;98129.53;;;34.15
73265;BMP280;61493;51.008;14.088;2022-07-04T12:11:56;98130.72;;;33.63
73265;BMP280;61493;51.008;14.088;2022-07-04T12:14:23;98125.38;;;33.85
73265;BMP280;61493;51.008;14.088;2022-07-04T12:16:48;98123.28;;;33.28
73265;BMP280;61493;51.008;14.088;2022-07-04T12:19:13;98124.94;;;33.50
73265;BMP280;61493;51.008;14.088;2022-07-04T12:21:39;98116.75;;;33.23
73265;BMP280;61493;51.008;14.088;2022-07-04T12:24:05;98111.22;;;33.04
73265;BMP280;61493;51.008;14.088;2022-07-04T12:26:31;98120.69;;;32.47
73265;BMP280;61493;51.008;14.088;2022-07-04T12:28:57;98123.72;;;31.80
73265;BMP280;61493;51.008;14.088;2022-07-04T12:31:39;98112.53;;;31.96
73265;BMP280;61493;51.008;14.088;2022-07-04T12:34:13;98114.81;;;31.55
73265;BMP280;61493;51.008;14.088;2022-07-04T12:36:52;98109.78;;;31.44
73265;BMP280;61493;51.008;14.088;2022-07-04T12:39:32;98106.81;;;31.50
73265;BMP280;61493;51.008;14.088;2022-07-04T12:44:33;98115.03;;;31.32
73265;BMP280;61493;51.008;14.088;2022-07-04T12:46:59;98106.63;;;31.05
73265;BMP280;61493;51.008;14.088;2022-07-04T12:49:25;98107.50;;;30.18
73265;BMP280;61493;51.008;14.088;2022-07-04T12:51:51;98105.28;;;29.39
73265;BMP280;61493;51.008;14.088;2022-07-04T12:54:16;98110.41;;;29.12
73265;BMP280;61493;51.008;14.088;2022-07-04T12:56:44;98113.16;;;29.35
73265;BMP280;61493;51.008;14.088;2022-07-04T12:59:12;98110.22;;;29.25
73265;BMP280;61493;51.008;14.088;2022-07-04T13:01:39;98108.44;;;28.46
73265;BMP280;61493;51.008;14.088;2022-07-04T13:04:05;98112.47;;;28.53
73265;BMP280;61493;51.008;14.088;2022-07-04T13:06:30;98117.97;;;28.61
73265;BMP280;61493;51.008;14.088;2022-07-04T13:08:56;98115.28;;;28.25
73265;BMP280;61493;51.008;14.088;2022-07-04T13:11:22;98123.22;;;28.15
73265;BMP280;61493;51.008;14.088;2022-07-04T13:14:06;98118.00;;;28.25
73265;BMP280;61493;51.008;14.088;2022-07-04T13:16:31;98119.59;;;28.12
73265;BMP280;61493;51.008;14.088;2022-07-04T13:18:57;98116.94;;;28.35
73265;BMP280;61493;51.008;14.088;2022-07-04T13:21:23;98111.41;;;28.71
73265;BMP280;61493;51.008;14.088;2022-07-04T13:23:48;98109.06;;;28.75
73265;BMP280;61493;51.008;14.088;2022-07-04T13:26:14;98118.44;;;29.10
73265;BMP280;61493;51.008;14.088;2022-07-04T13:28:39;98110.06;;;29.38
73265;BMP280;61493;51.008;14.088;2022-07-04T13:31:05;98115.13;;;29.19
73265;BMP280;61493;51.008;14.088;2022-07-04T13:33:31;98115.88;;;29.27
73265;BMP280;61493;51.008;14.088;2022-07-04T13:35:56;98112.59;;;29.36
73265;BMP280;61493;51.008;14.088;2022-07-04T13:38:22;98107.84;;;29.22
73265;BMP280;61493;51.008;14.088;2022-07-04T13:40:47;98110.75;;;28.93
73265;BMP280;61493;51.008;14.088;2022-07-04T13:43:13;98112.03;;;29.00
73265;BMP280;61493;51.008;14.088;2022-07-04T13:45:39;98099.09;;;29.23
73265;BMP280;61493;51.008;14.088;2022-07-04T13:48:06;98106.03;;;29.55
73265;BMP280;61493;51.008;14.088;2022-07-04T13:50:32;98101.72;;;29.92
73265;BMP280;61493;51.008;14.088;2022-07-04T13:53:00;98099.06;;;29.61
73265;BMP280;61493;51.008;14.088;2022-07-04T13:55:26;98098.72;;;30.20
73265;BMP280;61493;51.008;14.088;2022-07-04T13:57:51;98089.44;;;30.08
73265;BMP280;61493;51.008;14.088;2022-07-04T14:00:16;98096.41;;;30.01
73265;BMP280;61493;51.008;14.088;2022-07-04T14:02:42;98092.41;;;29.95
73265;BMP280;61493;51.008;14.088;2022-07-04T14:05:07;98095.72;;;29.86
73265;BMP280;61493;51.008;14.088;2022-07-04T14:07:33;98098.16;;;30.21
73265;BMP280;61493;51.008;14.088;2022-07-04T14:09:59;98101.66;;;30.54
73265;BMP280;61493;51.008;14.088;2022-07-04T14:12:24;98100.94;;;30.14
73265;BMP280;61493;51.008;14.088;2022-07-04T14:14:49;98102.31;;;29.90
73265;BMP280;61493;51.008;14.088;2022-07-04T14:17:15;98094.88;;;29.68
73265;BMP280;61493;51.008;14.088;2022-07-04T14:19:40;98108.19;;;29.49
73265;BMP280;61493;51.008;14.088;2022-07-04T14:22:06;98097.06;;;29.09
73265;BMP280;61493;51.008;14.088;2022-07-04T14:24:31;98088.25;;;28.72
73265;BMP280;61493;51.008;14.088;2022-07-04T14:26:56;98088.66;;;28.33
73265;BMP280;61493;51.008;14.088;2022-07-04T14:29:22;98088.34;;;28.51
73265;BMP280;61493;51.008;14.088;2022-07-04T14:31:47;98086.03;;;28.63